createdAt,value
2019-02-02T00:00:39.794Z,90.06
2019-02-02T00:01:39.746Z,89.74
2019-02-02T00:02:39.750Z,89.84
2019-02-02T00:03:39.744Z,89.64
2019-02-02T00:04:39.722Z,89.74
2019-02-02T00:05:39.707Z,89.74
2019-02-02T00:06:39.729Z,89.74
2019-02-02T00:07:39.691Z,90.16
2019-02-02T00:08:39.658Z,89.64
2019-02-02T00:09:39.659Z,89.64
2019-02-02T00:10:39.659Z,89.74
2019-02-02T00:11:39.639Z,89.74
2019-02-02T00:12:39.648Z,89.84
2019-02-02T00:13:39.624Z,89.53
2019-02-02T00:14:39.590Z,89.53
2019-02-02T00:15:40.165Z,89.32
2019-02-02T00:16:39.613Z,89.64
2019-02-02T00:17:39.575Z,89.84
2019-02-02T00:18:39.577Z,89.11
2019-02-02T00:19:39.582Z,89.74
2019-02-02T00:20:39.571Z,89.64
2019-02-02T00:21:39.633Z,89.22
2019-02-02T00:22:39.557Z,89.74
2019-02-02T00:23:39.508Z,89.32
2019-02-02T00:24:39.500Z,89.32
2019-02-02T00:25:39.509Z,89.11
2019-02-02T00:26:39.461Z,89.11
2019-02-02T00:27:41.606Z,89.22
2019-02-02T00:28:39.461Z,89.32
2019-02-02T00:29:39.441Z,89.64
2019-02-02T00:30:39.438Z,89.53
2019-02-02T00:31:39.424Z,89.74
2019-02-02T00:32:39.414Z,89.64
2019-02-02T00:33:39.414Z,89.64
2019-02-02T00:34:39.395Z,90.31
2019-02-02T00:35:39.404Z,89.89
2019-02-02T00:36:39.417Z,89.99
2019-02-02T00:37:39.344Z,90.83
2019-02-02T00:38:39.332Z,90.31
2019-02-02T00:39:39.352Z,90.41
2019-02-02T00:40:39.312Z,90.31
2019-02-02T00:41:39.322Z,90.20
2019-02-02T00:42:39.351Z,90.20
2019-02-02T00:43:39.304Z,90.31
2019-02-02T00:44:39.283Z,91.03
2019-02-02T00:45:39.285Z,91.00
2019-02-02T00:46:39.295Z,91.20
2019-02-02T00:47:39.296Z,90.16
2019-02-02T00:48:39.272Z,91.10
2019-02-02T00:49:39.236Z,90.78
2019-02-02T00:50:39.224Z,91.14
2019-02-02T00:51:39.217Z,90.26
2019-02-02T00:52:39.213Z,90.26
2019-02-02T00:53:39.252Z,90.47
2019-02-02T00:54:39.177Z,90.26
2019-02-02T00:55:39.179Z,90.37
2019-02-02T00:56:39.169Z,90.58
2019-02-02T00:57:39.207Z,90.26
2019-02-02T00:58:39.166Z,90.78
2019-02-02T00:59:39.137Z,90.68
2019-02-02T01:00:39.146Z,90.47
2019-02-02T01:01:39.122Z,90.58
2019-02-02T01:02:39.123Z,90.47
2019-02-02T01:03:39.118Z,90.78
2019-02-02T01:04:39.104Z,90.75
2019-02-02T01:05:39.282Z,90.26
2019-02-02T01:06:39.054Z,90.47
2019-02-02T01:07:39.089Z,90.64
2019-02-02T01:08:39.073Z,89.91
2019-02-02T01:09:39.019Z,90.01
2019-02-02T01:10:39.037Z,90.12
2019-02-02T01:11:39.167Z,89.70
2019-02-02T01:12:38.989Z,89.59
2019-02-02T01:13:39.078Z,89.49
2019-02-02T01:14:39.036Z,89.70
2019-02-02T01:15:39.059Z,89.81
2019-02-02T01:16:39.039Z,89.70
2019-02-02T01:17:38.953Z,89.70
2019-02-02T01:18:38.984Z,89.70
2019-02-02T01:19:38.944Z,89.28
2019-02-02T01:20:38.932Z,89.07
2019-02-02T01:21:38.944Z,89.28
2019-02-02T01:22:38.983Z,89.18
2019-02-02T01:23:38.934Z,89.59
2019-02-02T01:24:38.894Z,89.70
2019-02-02T01:25:38.875Z,89.59
2019-02-02T01:26:38.861Z,89.28
2019-02-02T01:27:38.837Z,89.07
2019-02-02T01:28:38.854Z,89.18
2019-02-02T01:29:38.840Z,89.07
2019-02-02T01:30:38.813Z,89.59
2019-02-02T01:31:38.778Z,89.07
2019-02-02T01:32:38.795Z,89.28
2019-02-02T01:33:38.834Z,89.39
2019-02-02T01:34:38.768Z,89.53
2019-02-02T01:35:38.753Z,89.74
2019-02-02T01:36:38.738Z,89.74
2019-02-02T01:37:38.727Z,89.74
2019-02-02T01:38:38.726Z,89.49
2019-02-02T01:39:38.707Z,90.06
2019-02-02T01:40:38.726Z,89.43
2019-02-02T01:41:38.708Z,90.06
2019-02-02T01:42:38.683Z,89.74
2019-02-02T01:43:38.735Z,89.74
2019-02-02T01:44:38.690Z,90.47
2019-02-02T01:45:38.672Z,90.26
2019-02-02T01:46:38.629Z,89.74
2019-02-02T01:47:38.651Z,89.95
2019-02-02T01:48:38.602Z,89.95
2019-02-02T01:49:38.652Z,89.95
2019-02-02T01:50:38.600Z,90.26
2019-02-02T01:51:38.609Z,90.41
2019-02-02T01:52:38.573Z,90.26
2019-02-02T01:53:38.574Z,90.16
2019-02-02T01:54:38.675Z,90.26
2019-02-02T01:55:38.587Z,90.16
2019-02-02T01:56:38.529Z,90.78
2019-02-02T01:57:38.518Z,90.89
2019-02-02T01:58:38.498Z,90.78
2019-02-02T01:59:38.530Z,91.00
2019-02-02T02:00:38.477Z,90.26
2019-02-02T02:01:41.352Z,90.16
2019-02-02T02:02:38.716Z,90.26
2019-02-02T02:03:38.460Z,90.16
2019-02-02T02:04:38.450Z,90.26
2019-02-02T02:05:38.412Z,90.47
2019-02-02T02:06:38.423Z,90.58
2019-02-02T02:07:38.399Z,90.58
2019-02-02T02:08:38.423Z,90.16
2019-02-02T02:09:38.414Z,90.26
2019-02-02T02:10:38.383Z,90.16
2019-02-02T02:11:38.385Z,90.47
2019-02-02T02:12:38.360Z,90.58
2019-02-02T02:13:38.325Z,90.06
2019-02-02T02:14:38.339Z,90.37
2019-02-02T02:15:38.382Z,90.26
2019-02-02T02:16:38.337Z,90.26
2019-02-02T02:17:38.318Z,90.26
2019-02-02T02:18:38.273Z,90.37
2019-02-02T02:19:38.376Z,91.00
2019-02-02T02:20:38.327Z,91.00
2019-02-02T02:21:38.279Z,90.78
2019-02-02T02:22:41.099Z,90.26
2019-02-02T02:23:38.243Z,90.37
2019-02-02T02:24:38.231Z,90.37
2019-02-02T02:25:38.268Z,90.37
2019-02-02T02:26:38.203Z,90.26
2019-02-02T02:27:38.192Z,90.26
2019-02-02T02:28:38.265Z,90.26
2019-02-02T02:29:38.183Z,90.68
2019-02-02T02:30:38.175Z,90.78
2019-02-02T02:31:38.225Z,89.95
2019-02-02T02:32:38.123Z,90.58
2019-02-02T02:33:38.135Z,90.58
2019-02-02T02:34:38.176Z,90.68
2019-02-02T02:35:38.112Z,90.47
2019-02-02T02:36:38.098Z,90.16
2019-02-02T02:37:38.074Z,90.37
2019-02-02T02:38:38.091Z,90.16
2019-02-02T02:39:38.134Z,90.26
2019-02-02T02:40:38.092Z,90.47
2019-02-02T02:41:38.095Z,90.78
2019-02-02T02:42:38.041Z,90.26
2019-02-02T02:43:38.033Z,90.64
2019-02-02T02:44:38.015Z,90.64
2019-02-02T02:45:38.039Z,89.91
2019-02-02T02:46:37.994Z,89.91
2019-02-02T02:47:38.099Z,89.95
2019-02-02T02:48:37.969Z,89.81
2019-02-02T02:49:37.977Z,89.91
2019-02-02T02:50:37.937Z,89.91
2019-02-02T02:51:37.916Z,89.59
2019-02-02T02:52:37.982Z,89.81
2019-02-02T02:53:37.933Z,89.59
2019-02-02T02:54:37.922Z,89.70
2019-02-02T02:55:37.911Z,89.81
2019-02-02T02:56:37.903Z,90.01
2019-02-02T02:57:37.869Z,89.81
2019-02-02T02:58:41.592Z,89.49
2019-02-02T02:59:37.845Z,89.81
2019-02-02T03:00:37.933Z,89.39
2019-02-02T03:01:37.843Z,89.28
2019-02-02T03:02:37.835Z,89.07
2019-02-02T03:03:37.833Z,89.07
2019-02-02T03:04:37.847Z,89.18
2019-02-02T03:05:37.807Z,89.14
2019-02-02T03:06:37.836Z,89.28
2019-02-02T03:07:37.757Z,89.07
2019-02-02T03:08:37.780Z,89.07
2019-02-02T03:09:37.763Z,89.39
2019-02-02T03:10:37.754Z,89.28
2019-02-02T03:11:37.764Z,89.49
2019-02-02T03:12:37.729Z,89.70
2019-02-02T03:13:37.736Z,89.59
2019-02-02T03:14:37.716Z,89.28
2019-02-02T03:15:37.701Z,89.07
2019-02-02T03:16:37.720Z,89.07
2019-02-02T03:17:37.656Z,89.39
2019-02-02T03:18:37.651Z,89.59
2019-02-02T03:19:37.612Z,89.28
2019-02-02T03:20:37.616Z,89.49
2019-02-02T03:21:37.621Z,89.28
2019-02-02T03:22:37.676Z,89.07
2019-02-02T03:23:37.677Z,89.28
2019-02-02T03:24:37.613Z,89.28
2019-02-02T03:25:37.549Z,89.28
2019-02-02T03:26:37.578Z,89.28
2019-02-02T03:27:37.542Z,89.49
2019-02-02T03:28:37.530Z,89.07
2019-02-02T03:29:37.565Z,89.07
2019-02-02T03:30:37.560Z,89.39
2019-02-02T03:31:37.527Z,89.49
2019-02-02T03:32:37.526Z,89.59
2019-02-02T03:33:37.532Z,89.49
2019-02-02T03:34:37.453Z,89.49
2019-02-02T03:35:37.529Z,89.18
2019-02-02T03:36:37.444Z,89.70
2019-02-02T03:37:37.446Z,89.59
2019-02-02T03:38:37.450Z,89.59
2019-02-02T03:39:37.474Z,89.70
2019-02-02T03:40:37.409Z,89.03
2019-02-02T03:41:37.392Z,88.72
2019-02-02T03:42:37.408Z,88.82
2019-02-02T03:43:37.350Z,88.93
2019-02-02T03:44:37.363Z,88.93
2019-02-02T03:45:40.520Z,88.82
2019-02-02T03:46:37.400Z,88.51
2019-02-02T03:47:37.320Z,88.72
2019-02-02T03:48:37.342Z,88.82
2019-02-02T03:49:37.310Z,88.45
2019-02-02T03:50:37.356Z,88.51
2019-02-02T03:51:37.301Z,88.62
2019-02-02T03:52:37.309Z,88.51
2019-02-02T03:53:37.283Z,88.72
2019-02-02T03:54:37.490Z,88.41
2019-02-02T03:55:37.253Z,88.41
2019-02-02T03:56:37.236Z,88.41
2019-02-02T03:57:37.235Z,88.51
2019-02-02T03:58:37.247Z,88.41
2019-02-02T03:59:37.218Z,88.41
2019-02-02T04:00:37.217Z,88.41
2019-02-02T04:01:37.210Z,88.30
2019-02-02T04:02:37.207Z,88.20
2019-02-02T04:03:37.188Z,88.41
2019-02-02T04:04:37.128Z,88.41
2019-02-02T04:05:37.189Z,88.20
2019-02-02T04:06:37.141Z,88.30
2019-02-02T04:07:37.083Z,88.41
2019-02-02T04:08:37.125Z,88.20
2019-02-02T04:09:37.106Z,88.34
2019-02-02T04:10:37.158Z,88.24
2019-02-02T04:11:37.088Z,88.45
2019-02-02T04:12:37.077Z,88.45
2019-02-02T04:13:37.069Z,88.55
2019-02-02T04:14:37.012Z,88.34
2019-02-02T04:15:37.018Z,88.65
2019-02-02T04:16:37.152Z,88.82
2019-02-02T04:17:36.998Z,89.07
2019-02-02T04:18:37.009Z,89.07
2019-02-02T04:19:36.978Z,88.55
2019-02-02T04:20:37.020Z,88.76
2019-02-02T04:21:37.070Z,88.82
2019-02-02T04:22:36.945Z,88.55
2019-02-02T04:25:09.074Z,88.76
2019-02-02T04:26:08.996Z,88.72
2019-02-02T04:27:09.038Z,88.55
2019-02-02T04:28:08.979Z,88.65
2019-02-02T04:29:17.635Z,88.87
2019-02-02T04:30:09.955Z,88.65
2019-02-02T04:31:08.949Z,88.76
2019-02-02T04:32:08.990Z,88.55
2019-02-02T04:33:08.930Z,88.87
2019-02-02T04:34:08.909Z,88.55
2019-02-02T04:35:08.887Z,88.76
2019-02-02T04:36:08.991Z,88.51
2019-02-02T04:37:08.882Z,88.87
2019-02-02T04:38:08.871Z,88.62
2019-02-02T04:39:08.855Z,89.28
2019-02-02T04:40:08.851Z,88.45
2019-02-02T04:41:08.837Z,88.45
2019-02-02T04:42:08.847Z,88.72
2019-02-02T04:43:08.896Z,88.62
2019-02-02T04:44:08.845Z,88.41
2019-02-02T04:45:08.796Z,88.41
2019-02-02T04:46:08.784Z,88.09
2019-02-02T04:47:08.810Z,88.41
2019-02-02T04:48:08.775Z,88.30
2019-02-02T04:49:08.809Z,88.41
2019-02-02T04:50:08.740Z,88.20
2019-02-02T04:51:08.731Z,88.30
2019-02-02T04:52:08.766Z,88.20
2019-02-02T04:53:08.702Z,88.30
2019-02-02T04:54:08.703Z,88.30
2019-02-02T04:55:08.682Z,88.30
2019-02-02T04:56:08.675Z,88.20
2019-02-02T04:57:08.671Z,88.30
2019-02-02T04:58:08.695Z,88.09
2019-02-02T04:59:08.653Z,88.09
2019-02-02T05:00:08.628Z,88.30
2019-02-02T05:01:08.675Z,88.09
2019-02-02T05:02:08.645Z,88.20
2019-02-02T05:03:08.640Z,88.09
2019-02-02T05:04:08.618Z,88.30
2019-02-02T05:05:08.581Z,87.99
2019-02-02T05:06:08.580Z,88.30
2019-02-02T05:07:08.551Z,88.41
2019-02-02T05:08:08.542Z,88.47
2019-02-02T05:09:08.557Z,88.30
2019-02-02T05:10:08.537Z,88.51
2019-02-02T05:11:08.522Z,88.09
2019-02-02T05:12:08.501Z,88.41
2019-02-02T05:13:08.526Z,88.51
2019-02-02T05:14:08.485Z,88.51
2019-02-02T05:15:08.476Z,88.62
2019-02-02T05:16:08.434Z,88.93
2019-02-02T05:17:08.471Z,88.51
2019-02-02T05:18:08.470Z,88.93
2019-02-02T05:19:08.429Z,88.62
2019-02-02T05:20:08.419Z,89.66
2019-02-02T05:21:08.399Z,89.34
2019-02-02T05:22:08.397Z,89.56
2019-02-02T05:23:08.614Z,89.03
2019-02-02T05:24:08.363Z,89.14
2019-02-02T05:25:08.363Z,89.34
2019-02-02T05:26:08.327Z,89.87
2019-02-02T05:27:08.331Z,89.70
2019-02-02T05:28:08.335Z,89.66
2019-02-02T05:29:08.479Z,89.66
2019-02-02T05:30:08.294Z,89.76
2019-02-02T05:31:08.322Z,90.08
2019-02-02T05:32:08.341Z,89.66
2019-02-02T05:33:08.295Z,89.45
2019-02-02T05:34:08.377Z,89.66
2019-02-02T05:35:08.279Z,89.66
2019-02-02T05:36:08.258Z,89.24
2019-02-02T05:37:08.217Z,89.14
2019-02-02T05:38:08.246Z,89.14
2019-02-02T05:39:08.220Z,89.14
2019-02-02T05:40:08.269Z,89.10
2019-02-02T05:41:08.230Z,89.31
2019-02-02T05:42:08.205Z,89.41
2019-02-02T05:43:08.179Z,89.62
2019-02-02T05:44:08.158Z,88.68
2019-02-02T05:45:08.172Z,88.78
2019-02-02T05:46:08.128Z,89.10
2019-02-02T05:47:08.124Z,88.47
2019-02-02T05:48:08.105Z,88.47
2019-02-02T05:49:08.094Z,88.26
2019-02-02T05:50:08.081Z,88.16
2019-02-02T05:51:08.098Z,88.26
2019-02-02T05:52:08.066Z,88.06
2019-02-02T05:53:08.028Z,88.26
2019-02-02T05:54:08.038Z,88.06
2019-02-02T05:55:08.063Z,87.74
2019-02-02T05:56:07.996Z,88.16
2019-02-02T05:57:07.997Z,88.26
2019-02-02T05:58:07.991Z,87.63
2019-02-02T05:59:07.994Z,88.26
2019-02-02T06:00:07.975Z,87.84
2019-02-02T06:01:07.996Z,88.20
2019-02-02T06:02:07.980Z,88.30
2019-02-02T06:03:07.954Z,88.41
2019-02-02T06:04:07.953Z,88.47
2019-02-02T06:05:07.948Z,88.41
2019-02-02T06:06:07.915Z,89.03
2019-02-02T06:07:07.901Z,89.03
2019-02-02T06:08:07.858Z,88.62
2019-02-02T06:09:07.914Z,88.57
2019-02-02T06:10:07.952Z,88.89
2019-02-02T06:11:07.870Z,88.37
2019-02-02T06:12:07.858Z,88.47
2019-02-02T06:13:07.827Z,88.16
2019-02-02T06:14:07.812Z,88.26
2019-02-02T06:15:07.808Z,88.26
2019-02-02T06:16:07.881Z,88.26
2019-02-02T06:17:07.780Z,88.26
2019-02-02T06:18:07.791Z,88.26
2019-02-02T06:19:07.776Z,88.26
2019-02-02T06:20:07.816Z,88.47
2019-02-02T06:21:07.798Z,88.47
2019-02-02T06:22:07.730Z,88.37
2019-02-02T06:23:07.713Z,88.57
2019-02-02T06:24:07.708Z,88.57
2019-02-02T06:25:07.675Z,88.37
2019-02-02T06:26:07.735Z,87.95
2019-02-02T06:27:07.667Z,87.74
2019-02-02T06:28:07.647Z,87.84
2019-02-02T06:29:07.648Z,87.84
2019-02-02T06:30:07.643Z,87.63
2019-02-02T06:31:07.661Z,88.26
2019-02-02T06:32:11.995Z,88.47
2019-02-02T06:33:07.603Z,88.26
2019-02-02T06:34:07.595Z,88.26
2019-02-02T06:35:07.587Z,88.47
2019-02-02T06:36:07.639Z,88.37
2019-02-02T06:37:07.538Z,88.26
2019-02-02T06:38:07.552Z,87.53
2019-02-02T06:39:07.534Z,88.37
2019-02-02T06:40:07.530Z,87.84
2019-02-02T06:41:07.566Z,88.16
2019-02-02T06:42:07.498Z,88.26
2019-02-02T06:43:07.490Z,88.41
2019-02-02T06:44:07.496Z,88.51
2019-02-02T06:45:07.486Z,89.45
2019-02-02T06:46:07.508Z,89.14
2019-02-02T06:47:07.475Z,89.03
2019-02-02T06:48:07.460Z,89.45
2019-02-02T06:49:07.431Z,89.97
2019-02-02T06:50:07.446Z,90.50
2019-02-02T06:51:07.403Z,90.08
2019-02-02T06:52:07.402Z,90.70
2019-02-02T06:53:07.426Z,90.85
2019-02-02T06:54:07.381Z,90.85
2019-02-02T06:55:07.386Z,90.75
2019-02-02T06:56:07.431Z,90.53
2019-02-02T06:57:07.344Z,91.06
2019-02-02T06:58:07.416Z,91.27
2019-02-02T06:59:07.349Z,91.27
2019-02-02T07:00:15.803Z,91.16
2019-02-02T07:01:08.298Z,91.33
2019-02-02T07:02:07.318Z,91.47
2019-02-02T07:03:07.312Z,91.58
2019-02-02T07:04:07.258Z,90.95
2019-02-02T07:05:07.280Z,91.27
2019-02-02T07:06:07.247Z,91.16
2019-02-02T07:07:07.298Z,91.16
2019-02-02T07:08:07.228Z,91.16
2019-02-02T07:09:07.233Z,91.16
2019-02-02T07:10:07.204Z,91.37
2019-02-02T07:11:07.212Z,91.16
2019-02-02T07:12:07.373Z,91.37
2019-02-02T07:13:07.174Z,90.95
2019-02-02T07:14:07.177Z,91.06
2019-02-02T07:15:07.186Z,91.58
2019-02-02T07:16:07.148Z,91.58
2019-02-02T07:17:07.182Z,90.85
2019-02-02T07:18:07.131Z,90.75
2019-02-02T07:19:07.119Z,90.95
2019-02-02T07:20:07.069Z,90.60
2019-02-02T07:21:07.152Z,91.06
2019-02-02T07:22:07.078Z,91.58
2019-02-02T07:23:07.128Z,91.27
2019-02-02T07:24:07.081Z,90.53
2019-02-02T07:25:07.074Z,90.81
2019-02-02T07:26:07.076Z,90.75
2019-02-02T07:27:07.005Z,90.08
2019-02-02T07:28:07.028Z,90.12
2019-02-02T07:29:06.968Z,90.22
2019-02-02T07:30:06.976Z,90.64
2019-02-02T07:31:06.976Z,90.43
2019-02-02T07:32:06.961Z,90.22
2019-02-02T07:33:06.982Z,90.53
2019-02-02T07:34:06.930Z,90.64
2019-02-02T07:35:06.930Z,90.64
2019-02-02T07:36:06.934Z,90.64
2019-02-02T07:37:06.900Z,89.87
2019-02-02T07:38:06.946Z,89.91
2019-02-02T07:39:06.880Z,89.70
2019-02-02T07:40:06.869Z,89.70
2019-02-02T07:41:06.860Z,89.18
2019-02-02T07:42:06.929Z,89.39
2019-02-02T07:43:06.832Z,89.59
2019-02-02T07:44:06.809Z,89.07
2019-02-02T07:45:06.871Z,89.28
2019-02-02T07:46:14.747Z,89.49
2019-02-02T07:47:09.285Z,89.39
2019-02-02T07:48:06.782Z,89.49
2019-02-02T07:49:06.757Z,89.07
2019-02-02T07:50:06.757Z,89.03
2019-02-02T07:51:06.799Z,89.59
2019-02-02T07:52:06.767Z,89.34
2019-02-02T07:53:06.740Z,89.14
2019-02-02T07:54:06.818Z,89.70
2019-02-02T07:55:06.711Z,89.49
2019-02-02T07:56:06.686Z,89.49
2019-02-02T07:57:06.681Z,89.70
2019-02-02T07:58:06.664Z,89.70
2019-02-02T07:59:07.034Z,89.18
2019-02-02T08:00:06.633Z,89.56
2019-02-02T08:01:06.657Z,89.34
2019-02-02T08:02:06.624Z,89.24
2019-02-02T08:03:06.624Z,89.24
2019-02-02T08:04:06.646Z,89.76
2019-02-02T08:05:06.609Z,89.45
2019-02-02T08:06:06.595Z,89.24
2019-02-02T08:07:06.576Z,89.66
2019-02-02T08:08:06.801Z,89.87
2019-02-02T08:09:06.559Z,89.56
2019-02-02T08:10:06.547Z,89.70
2019-02-02T08:11:06.588Z,89.49
2019-02-02T08:12:06.551Z,90.33
2019-02-02T08:13:06.515Z,89.59
2019-02-02T08:14:06.547Z,89.70
2019-02-02T08:15:06.477Z,89.81
2019-02-02T08:16:06.483Z,90.50
2019-02-02T08:17:06.498Z,90.18
2019-02-02T08:18:06.464Z,90.39
2019-02-02T08:19:06.460Z,90.50
2019-02-02T08:20:06.486Z,90.64
2019-02-02T08:21:06.425Z,90.70
2019-02-02T08:22:06.414Z,89.87
2019-02-02T08:23:06.497Z,89.76
2019-02-02T08:24:06.438Z,89.97
2019-02-02T08:25:06.390Z,89.87
2019-02-02T08:26:06.365Z,89.56
2019-02-02T08:27:06.512Z,89.76
2019-02-02T08:28:06.352Z,89.66
2019-02-02T08:29:06.346Z,89.24
2019-02-02T08:30:06.377Z,89.14
2019-02-02T08:31:06.343Z,89.03
2019-02-02T08:32:06.334Z,89.66
2019-02-02T08:33:06.322Z,89.56
2019-02-02T08:34:06.292Z,89.87
2019-02-02T08:35:06.370Z,89.24
2019-02-02T08:36:06.267Z,89.56
2019-02-02T08:37:06.256Z,89.56
2019-02-02T08:38:06.246Z,89.24
2019-02-02T08:39:06.272Z,89.24
2019-02-02T08:40:06.258Z,89.34
2019-02-02T08:41:06.251Z,89.03
2019-02-02T08:42:06.188Z,89.14
2019-02-02T08:43:06.173Z,89.66
2019-02-02T08:44:06.180Z,89.45
2019-02-02T08:45:06.216Z,89.56
2019-02-02T08:46:06.162Z,89.66
2019-02-02T08:47:06.126Z,89.45
2019-02-02T08:48:06.164Z,89.66
2019-02-02T08:49:06.135Z,89.56
2019-02-02T08:50:06.196Z,89.45
2019-02-02T08:51:06.145Z,89.76
2019-02-02T08:52:06.096Z,89.34
2019-02-02T08:53:06.081Z,89.66
2019-02-02T08:54:06.068Z,89.45
2019-02-02T08:55:06.145Z,89.91
2019-02-02T08:56:06.270Z,89.56
2019-02-02T08:57:06.161Z,89.45
2019-02-02T08:58:06.074Z,89.87
2019-02-02T08:59:06.004Z,89.34
2019-02-02T09:00:06.013Z,89.56
2019-02-02T09:01:06.018Z,89.34
2019-02-02T09:02:05.981Z,89.45
2019-02-02T09:03:06.097Z,89.24
2019-02-02T09:04:06.092Z,89.03
2019-02-02T09:05:05.964Z,89.14
2019-02-02T09:06:06.151Z,89.66
2019-02-02T09:07:05.996Z,89.24
2019-02-02T09:08:05.944Z,89.45
2019-02-02T09:09:05.933Z,89.97
2019-02-02T09:10:05.884Z,89.45
2019-02-02T09:11:05.981Z,89.66
2019-02-02T09:12:05.884Z,89.76
2019-02-02T09:13:05.888Z,89.87
2019-02-02T09:14:05.856Z,89.87
2019-02-02T09:15:05.868Z,89.97
2019-02-02T09:16:05.896Z,89.76
2019-02-02T09:17:05.861Z,89.76
2019-02-02T09:18:05.810Z,90.33
2019-02-02T09:19:05.812Z,90.50
2019-02-02T09:20:05.783Z,90.28
2019-02-02T09:21:05.783Z,89.76
2019-02-02T09:22:05.803Z,89.45
2019-02-02T09:23:06.728Z,89.66
2019-02-02T09:24:05.722Z,89.66
2019-02-02T09:25:05.746Z,89.56
2019-02-02T09:26:05.857Z,89.97
2019-02-02T09:27:05.755Z,89.66
2019-02-02T09:28:05.696Z,89.66
2019-02-02T09:29:05.715Z,89.24
2019-02-02T09:30:05.708Z,89.34
2019-02-02T09:31:15.538Z,89.24
2019-02-02T09:32:06.696Z,89.34
2019-02-02T09:33:05.648Z,89.24
2019-02-02T09:34:05.649Z,89.66
2019-02-02T09:35:05.626Z,89.56
2019-02-02T09:36:05.611Z,89.34
2019-02-02T09:37:05.653Z,89.56
2019-02-02T09:38:05.594Z,88.93
2019-02-02T09:39:05.606Z,88.41
2019-02-02T09:40:05.550Z,87.68
2019-02-02T09:41:05.554Z,88.41
2019-02-02T09:42:05.626Z,88.20
2019-02-02T09:43:05.555Z,88.30
2019-02-02T09:44:05.535Z,88.20
2019-02-02T09:45:05.497Z,88.41
2019-02-02T09:46:05.800Z,87.78
2019-02-02T09:47:05.483Z,88.06
2019-02-02T09:48:05.504Z,88.30
2019-02-02T09:49:05.475Z,87.84
2019-02-02T09:50:05.466Z,88.06
2019-02-02T09:51:05.448Z,87.95
2019-02-02T09:52:05.491Z,88.57
2019-02-02T09:53:05.447Z,88.37
2019-02-02T09:54:05.412Z,87.74
2019-02-02T09:55:05.440Z,87.84
2019-02-02T09:56:05.394Z,88.06
2019-02-02T09:57:05.443Z,88.26
2019-02-02T09:58:08.449Z,88.26
2019-02-02T09:59:05.360Z,87.84
2019-02-02T10:00:05.497Z,88.12
2019-02-02T10:01:05.330Z,88.01
2019-02-02T10:02:05.308Z,87.95
2019-02-02T10:03:05.342Z,87.74
2019-02-02T10:04:05.318Z,87.74
2019-02-02T10:05:05.274Z,87.74
2019-02-02T10:06:05.306Z,87.22
2019-02-02T10:07:05.275Z,87.95
2019-02-02T10:08:05.271Z,87.74
2019-02-02T10:09:05.270Z,87.74
2019-02-02T10:10:05.252Z,87.95
2019-02-02T10:11:05.242Z,87.84
2019-02-02T10:12:05.241Z,87.63
2019-02-02T10:13:05.260Z,88.26
2019-02-02T10:14:05.191Z,88.47
2019-02-02T10:15:05.161Z,88.16
2019-02-02T10:16:05.171Z,87.95
2019-02-02T10:17:05.187Z,88.57
2019-02-02T10:18:05.208Z,87.63
2019-02-02T10:19:05.140Z,88.26
2019-02-02T10:20:05.148Z,88.26
2019-02-02T10:21:05.123Z,87.74
2019-02-02T10:22:05.100Z,87.63
2019-02-02T10:23:05.139Z,87.74
2019-02-02T10:24:05.112Z,88.06
2019-02-02T10:25:05.146Z,88.16
2019-02-02T10:26:05.050Z,88.47
2019-02-02T10:27:05.046Z,88.06
2019-02-02T10:28:05.031Z,88.16
2019-02-02T10:29:05.032Z,87.81
2019-02-02T10:30:05.052Z,88.32
2019-02-02T10:31:05.016Z,88.01
2019-02-02T10:32:05.020Z,88.22
2019-02-02T10:33:04.987Z,87.81
2019-02-02T10:34:04.967Z,87.63
2019-02-02T10:35:04.959Z,88.12
2019-02-02T10:36:04.982Z,88.12
2019-02-02T10:37:04.931Z,87.70
2019-02-02T10:38:04.971Z,87.60
2019-02-02T10:39:04.890Z,87.04
2019-02-02T10:40:05.169Z,87.18
2019-02-02T10:41:04.929Z,86.66
2019-02-02T10:42:04.882Z,87.18
2019-02-02T10:43:04.885Z,86.97
2019-02-02T10:44:04.910Z,87.14
2019-02-02T10:45:04.935Z,87.24
2019-02-02T10:46:04.873Z,87.60
2019-02-02T10:47:04.833Z,87.81
2019-02-02T10:48:04.873Z,87.70
2019-02-02T10:49:04.833Z,87.49
2019-02-02T10:50:04.785Z,87.28
2019-02-02T10:51:04.797Z,87.07
2019-02-02T10:52:04.815Z,87.60
2019-02-02T10:53:04.754Z,87.04
2019-02-02T10:54:05.706Z,86.87
2019-02-02T10:55:04.784Z,86.72
2019-02-02T10:56:04.734Z,86.76
2019-02-02T10:57:04.740Z,86.76
2019-02-02T10:58:04.769Z,86.76
2019-02-02T10:59:04.694Z,86.76
2019-02-02T11:00:04.685Z,87.55
2019-02-02T11:01:04.673Z,87.81
2019-02-02T11:02:04.672Z,88.08
2019-02-02T11:03:04.645Z,87.35
2019-02-02T11:04:04.691Z,87.24
2019-02-02T11:05:04.793Z,86.61
2019-02-02T11:06:04.621Z,87.28
2019-02-02T11:07:04.695Z,86.41
2019-02-02T11:08:04.637Z,86.61
2019-02-02T11:09:04.582Z,86.20
2019-02-02T11:10:05.435Z,86.76
2019-02-02T11:11:04.821Z,86.51
2019-02-02T11:12:04.688Z,86.51
2019-02-02T11:13:04.570Z,86.55
2019-02-02T11:14:04.770Z,86.87
2019-02-02T11:15:04.540Z,86.30
2019-02-02T11:16:04.735Z,86.97
2019-02-02T11:17:04.563Z,86.76
2019-02-02T11:18:04.495Z,86.61
2019-02-02T11:19:04.471Z,87.39
2019-02-02T11:20:04.512Z,87.55
2019-02-02T11:21:04.461Z,86.51
2019-02-02T11:22:04.747Z,86.41
2019-02-02T11:23:04.442Z,86.83
2019-02-02T11:24:04.421Z,86.83
2019-02-02T11:25:04.501Z,86.61
2019-02-02T11:26:04.529Z,86.72
2019-02-02T11:27:04.376Z,86.83
2019-02-02T11:28:04.513Z,86.97
2019-02-02T11:29:04.337Z,86.93
2019-02-02T11:30:04.354Z,87.49
2019-02-02T11:31:04.384Z,87.49
2019-02-02T11:32:04.307Z,87.91
2019-02-02T11:33:04.295Z,87.60
2019-02-02T11:34:04.308Z,88.43
2019-02-02T11:35:04.295Z,88.22
2019-02-02T11:36:04.324Z,88.01
2019-02-02T11:37:04.298Z,88.57
2019-02-02T11:38:04.240Z,88.12
2019-02-02T11:39:04.229Z,87.91
2019-02-02T11:40:04.255Z,88.26
2019-02-02T11:41:04.231Z,88.16
2019-02-02T11:42:04.234Z,88.95
2019-02-02T11:43:04.210Z,88.47
2019-02-02T11:44:04.171Z,87.53
2019-02-02T11:45:04.210Z,87.70
2019-02-02T11:46:04.190Z,87.81
2019-02-02T11:47:04.183Z,88.26
2019-02-02T11:48:04.151Z,88.32
2019-02-02T11:49:04.132Z,87.95
2019-02-02T11:50:04.122Z,87.60
2019-02-02T11:51:04.145Z,88.01
2019-02-02T11:52:04.153Z,88.43
2019-02-02T11:53:04.102Z,88.12
2019-02-02T11:54:04.073Z,87.70
2019-02-02T11:55:04.072Z,87.81
2019-02-02T11:56:04.086Z,88.32
2019-02-02T11:57:04.079Z,87.84
2019-02-02T11:58:04.156Z,88.12
2019-02-02T11:59:04.031Z,88.01
2019-02-02T12:00:04.031Z,88.12
2019-02-02T12:01:04.000Z,88.22
2019-02-02T12:02:14.246Z,88.22
2019-02-02T12:03:05.034Z,88.12
2019-02-02T12:04:03.987Z,88.43
2019-02-02T12:05:03.963Z,88.12
2019-02-02T12:06:03.934Z,88.53
2019-02-02T12:07:03.931Z,87.91
2019-02-02T12:08:03.964Z,87.91
2019-02-02T12:09:03.920Z,88.22
2019-02-02T12:10:03.945Z,88.12
2019-02-02T12:11:03.886Z,88.01
2019-02-02T12:12:03.861Z,88.32
2019-02-02T12:13:03.950Z,88.01
2019-02-02T12:14:03.864Z,88.57
2019-02-02T12:15:03.865Z,88.68
2019-02-02T12:16:03.833Z,89.58
2019-02-02T12:17:03.836Z,89.51
2019-02-02T12:18:03.833Z,89.68
2019-02-02T12:19:03.868Z,89.47
2019-02-02T12:20:03.769Z,89.58
2019-02-02T12:21:03.802Z,89.37
2019-02-02T12:22:03.794Z,89.10
2019-02-02T12:23:03.762Z,89.06
2019-02-02T12:24:13.292Z,89.20
2019-02-02T12:25:04.768Z,88.99
2019-02-02T12:26:03.724Z,89.31
2019-02-02T12:27:03.760Z,89.10
2019-02-02T12:28:03.735Z,89.83
2019-02-02T12:29:03.728Z,89.31
2019-02-02T12:30:03.782Z,89.72
2019-02-02T12:31:03.650Z,90.25
2019-02-02T12:32:03.676Z,90.66
2019-02-02T12:33:03.839Z,90.66
2019-02-02T12:34:03.714Z,90.56
2019-02-02T12:35:04.722Z,90.97
2019-02-02T12:36:03.612Z,90.87
2019-02-02T12:37:03.660Z,90.91
2019-02-02T12:38:03.647Z,91.08
2019-02-02T12:39:03.638Z,91.12
2019-02-02T12:40:03.557Z,91.12
2019-02-02T12:41:03.559Z,90.97
2019-02-02T12:42:03.558Z,91.54
2019-02-02T12:43:03.535Z,91.33
2019-02-02T12:44:03.582Z,91.22
2019-02-02T12:45:03.510Z,91.54
2019-02-02T12:46:03.536Z,91.54
2019-02-02T12:47:03.470Z,91.85
2019-02-02T12:48:03.465Z,92.10
2019-02-02T12:49:03.527Z,92.47
2019-02-02T12:50:03.440Z,92.06
2019-02-02T12:51:03.584Z,91.64
2019-02-02T12:52:03.438Z,92.06
2019-02-02T12:53:03.430Z,91.75
2019-02-02T12:54:03.456Z,91.75